Peterborough Airport
CYPQ : now visible

Airfield :











YOU CAN JOIN US ON...

 
LOGIN :

Register | Disclaimer

   EN    FR    IT 

 









Legend :    VFR   Marginal VFR   IFR   Intensive IFR   Very Intensive IFR
Visi :
Ceiling :
>= 8 km
>= 3000ft
5 to 8 km
1000 to 3000 ft
1500m to 5 km
500 to 1000 ft
800 to 1500m
200 to 500 ft
< 800m
< 200 ft
Symbols :   Thunderstorms  Fog  Heavy snow  Heavy precipitations  Wind > 20 kt






- Airport Elevation : 628 ft
- IATA code : YPQ


CYPQ - Peterborough

CURRENT METAR :
  • 221338Z AUTO 00000KT 9SM -SN SCT018 M20/M22 A3032 RMK SLP289

EXPIRED METARs :
  • 221300Z AUTO VRB02KT 9SM -SN OVC016 M20/M23 A3033 RMK SLP297
  • 221200Z AUTO 00000KT 9SM -SN OVC016 M21/M23 A3035 RMK SLP302
  • 221100Z AUTO 00000KT 8SM -SN OVC018 M22/M24 A3037 RMK SLP306

TAF TAF CYPQ
Valid from the 22 at 14:00 until the 23 at 02:00 UTC


221340Z 2214/2302 VRB03KT P6SM -SN BKN015
TEMPO 2214/2218 P6SM NSW SCT015
BECMG 2214/2216 21008KT
FM221800 21010G20KT P6SM BKN025
TEMPO 2218/2221 5SM -SHSN OVC020
FM222100 22012G22KT 6SM -SN BKN025 OVC070
TEMPO 2221/2302 2SM -SN OVC020
PROB40 2221/2224 1SM -SN VV009 RMK FCST BASED ON AUTO OBS. NXT FCST BY 222000Z
CZYZ FIR / North America



MET'MAP, your aeronautical weather chart ! - Copyright ORBIFLY December 2007 - Disclaimer

ORBIFLY MET'MAP TEAM :

Programming & Development : Alexandra Zaïnal
Concept & original design : Baudouin d'Aumeries
Assistance for programming : Marc-Olivier Méhu
Technical & hardware support : Manuel Goepfert

Contact : metmap@orbifly.com




SOURCES & CREDITS :

   NOAA       Earth
Advisory